sensor_id;sensor_type;location;lat;lon;timestamp;P1;durP1;ratioP1;P2;durP2;ratioP2
73733;SDS011;62039;50.000;9.064;2023-06-22T00:00:21;4.10;;;3.80;;
73733;SDS011;62039;50.000;9.064;2023-06-22T00:02:48;4.10;;;3.80;;
73733;SDS011;62039;50.000;9.064;2023-06-22T00:05:15;3.73;;;3.43;;
73733;SDS011;62039;50.000;9.064;2023-06-22T00:07:42;3.57;;;3.27;;
73733;SDS011;62039;50.000;9.064;2023-06-22T00:10:09;3.80;;;3.30;;
73733;SDS011;62039;50.000;9.064;2023-06-22T00:12:36;3.80;;;3.50;;
73733;SDS011;62039;50.000;9.064;2023-06-22T00:15:04;4.07;;;3.70;;
73733;SDS011;62039;50.000;9.064;2023-06-22T00:17:34;3.80;;;3.50;;
73733;SDS011;62039;50.000;9.064;2023-06-22T00:20:01;4.30;;;3.60;;
73733;SDS011;62039;50.000;9.064;2023-06-22T00:22:29;3.80;;;3.50;;
73733;SDS011;62039;50.000;9.064;2023-06-22T00:24:56;4.17;;;3.77;;
73733;SDS011;62039;50.000;9.064;2023-06-22T00:27:23;4.17;;;3.77;;
73733;SDS011;62039;50.000;9.064;2023-06-22T00:29:50;3.70;;;3.40;;
73733;SDS011;62039;50.000;9.064;2023-06-22T00:32:17;3.83;;;3.53;;
73733;SDS011;62039;50.000;9.064;2023-06-22T00:34:47;4.23;;;3.87;;
73733;SDS011;62039;50.000;9.064;2023-06-22T00:37:14;6.70;;;4.17;;
73733;SDS011;62039;50.000;9.064;2023-06-22T00:39:41;4.20;;;3.90;;
73733;SDS011;62039;50.000;9.064;2023-06-22T00:42:08;4.53;;;4.13;;
73733;SDS011;62039;50.000;9.064;2023-06-22T00:44:35;3.97;;;3.67;;
73733;SDS011;62039;50.000;9.064;2023-06-22T00:47:02;4.57;;;3.97;;
73733;SDS011;62039;50.000;9.064;2023-06-22T00:49:30;4.27;;;3.97;;
73733;SDS011;62039;50.000;9.064;2023-06-22T00:52:00;4.40;;;4.03;;
73733;SDS011;62039;50.000;9.064;2023-06-22T00:54:27;4.30;;;4.00;;
73733;SDS011;62039;50.000;9.064;2023-06-22T00:56:54;3.97;;;3.67;;
73733;SDS011;62039;50.000;9.064;2023-06-22T00:59:21;4.83;;;4.43;;
73733;SDS011;62039;50.000;9.064;2023-06-22T01:01:49;4.73;;;4.30;;
73733;SDS011;62039;50.000;9.064;2023-06-22T01:04:16;5.10;;;4.67;;
73733;SDS011;62039;50.000;9.064;2023-06-22T01:06:44;4.80;;;4.33;;
73733;SDS011;62039;50.000;9.064;2023-06-22T01:09:21;4.73;;;4.33;;
73733;SDS011;62039;50.000;9.064;2023-06-22T01:11:53;4.77;;;4.40;;
73733;SDS011;62039;50.000;9.064;2023-06-22T01:14:24;5.03;;;4.63;;
73733;SDS011;62039;50.000;9.064;2023-06-22T01:16:54;4.73;;;4.33;;
73733;SDS011;62039;50.000;9.064;2023-06-22T01:19:29;4.80;;;4.40;;
73733;SDS011;62039;50.000;9.064;2023-06-22T01:22:01;4.97;;;4.50;;
73733;SDS011;62039;50.000;9.064;2023-06-22T01:24:41;4.93;;;4.53;;
73733;SDS011;62039;50.000;9.064;2023-06-22T01:27:18;5.10;;;4.70;;
73733;SDS011;62039;50.000;9.064;2023-06-22T01:30:00;4.70;;;4.40;;
73733;SDS011;62039;50.000;9.064;2023-06-22T01:32:29;4.50;;;4.20;;
73733;SDS011;62039;50.000;9.064;2023-06-22T01:34:58;4.93;;;4.43;;
73733;SDS011;62039;50.000;9.064;2023-06-22T01:37:26;5.23;;;4.57;;
73733;SDS011;62039;50.000;9.064;2023-06-22T01:39:54;4.70;;;4.30;;
73733;SDS011;62039;50.000;9.064;2023-06-22T01:42:23;4.33;;;4.03;;
73733;SDS011;62039;50.000;9.064;2023-06-22T01:44:51;4.50;;;4.10;;
73733;SDS011;62039;50.000;9.064;2023-06-22T01:47:22;4.00;;;3.70;;
73733;SDS011;62039;50.000;9.064;2023-06-22T01:49:50;4.60;;;4.20;;
73733;SDS011;62039;50.000;9.064;2023-06-22T01:52:17;4.10;;;3.80;;
73733;SDS011;62039;50.000;9.064;2023-06-22T01:54:44;4.20;;;3.90;;
73733;SDS011;62039;50.000;9.064;2023-06-22T01:57:11;4.13;;;3.83;;
73733;SDS011;62039;50.000;9.064;2023-06-22T01:59:39;4.70;;;3.83;;
73733;SDS011;62039;50.000;9.064;2023-06-22T02:02:15;4.13;;;3.83;;
73733;SDS011;62039;50.000;9.064;2023-06-22T02:04:52;4.63;;;4.23;;
73733;SDS011;62039;50.000;9.064;2023-06-22T02:07:23;4.23;;;3.93;;
73733;SDS011;62039;50.000;9.064;2023-06-22T02:09:56;3.90;;;3.60;;
73733;SDS011;62039;50.000;9.064;2023-06-22T02:12:25;3.70;;;3.40;;
73733;SDS011;62039;50.000;9.064;2023-06-22T02:14:54;3.90;;;3.60;;
73733;SDS011;62039;50.000;9.064;2023-06-22T02:17:21;3.47;;;3.17;;
73733;SDS011;62039;50.000;9.064;2023-06-22T02:19:52;3.67;;;3.37;;
73733;SDS011;62039;50.000;9.064;2023-06-22T02:22:19;3.83;;;3.53;;
73733;SDS011;62039;50.000;9.064;2023-06-22T02:24:46;4.07;;;3.77;;
73733;SDS011;62039;50.000;9.064;2023-06-22T02:27:13;3.90;;;3.60;;
73733;SDS011;62039;50.000;9.064;2023-06-22T02:29:40;4.13;;;3.83;;
73733;SDS011;62039;50.000;9.064;2023-06-22T02:32:07;5.10;;;4.70;;
73733;SDS011;62039;50.000;9.064;2023-06-22T02:34:34;5.00;;;4.60;;
73733;SDS011;62039;50.000;9.064;2023-06-22T02:37:04;5.27;;;4.77;;
73733;SDS011;62039;50.000;9.064;2023-06-22T02:39:31;5.50;;;5.10;;
73733;SDS011;62039;50.000;9.064;2023-06-22T02:41:58;5.40;;;4.90;;
73733;SDS011;62039;50.000;9.064;2023-06-22T02:44:25;4.77;;;4.37;;
73733;SDS011;62039;50.000;9.064;2023-06-22T02:46:52;5.23;;;4.80;;
73733;SDS011;62039;50.000;9.064;2023-06-22T02:49:19;4.80;;;4.50;;
73733;SDS011;62039;50.000;9.064;2023-06-22T02:51:47;5.67;;;5.27;;
73733;SDS011;62039;50.000;9.064;2023-06-22T02:54:17;5.03;;;4.60;;
73733;SDS011;62039;50.000;9.064;2023-06-22T02:56:44;4.90;;;4.43;;
73733;SDS011;62039;50.000;9.064;2023-06-22T02:59:11;5.03;;;4.27;;
73733;SDS011;62039;50.000;9.064;2023-06-22T03:01:38;5.07;;;4.67;;
73733;SDS011;62039;50.000;9.064;2023-06-22T03:04:05;5.00;;;4.60;;
73733;SDS011;62039;50.000;9.064;2023-06-22T03:06:33;5.07;;;4.67;;
73733;SDS011;62039;50.000;9.064;2023-06-22T03:09:00;4.87;;;4.53;;
73733;SDS011;62039;50.000;9.064;2023-06-22T03:11:32;5.57;;;5.07;;
73733;SDS011;62039;50.000;9.064;2023-06-22T03:13:59;5.50;;;5.00;;
73733;SDS011;62039;50.000;9.064;2023-06-22T03:16:27;4.90;;;4.50;;
73733;SDS011;62039;50.000;9.064;2023-06-22T03:18:54;6.17;;;5.63;;
73733;SDS011;62039;50.000;9.064;2023-06-22T03:21:22;5.70;;;5.20;;
73733;SDS011;62039;50.000;9.064;2023-06-22T03:23:49;6.27;;;5.67;;
73733;SDS011;62039;50.000;9.064;2023-06-22T03:26:17;5.53;;;5.03;;
73733;SDS011;62039;50.000;9.064;2023-06-22T03:28:47;4.97;;;4.57;;
73733;SDS011;62039;50.000;9.064;2023-06-22T03:31:14;5.50;;;5.00;;
73733;SDS011;62039;50.000;9.064;2023-06-22T03:33:41;5.40;;;4.90;;
73733;SDS011;62039;50.000;9.064;2023-06-22T03:36:08;5.73;;;5.17;;
73733;SDS011;62039;50.000;9.064;2023-06-22T03:38:35;5.57;;;5.03;;
73733;SDS011;62039;50.000;9.064;2023-06-22T03:41:01;5.77;;;5.27;;
73733;SDS011;62039;50.000;9.064;2023-06-22T03:43:28;5.10;;;4.70;;
73733;SDS011;62039;50.000;9.064;2023-06-22T03:45:58;5.17;;;4.77;;
73733;SDS011;62039;50.000;9.064;2023-06-22T03:48:25;4.80;;;4.40;;
73733;SDS011;62039;50.000;9.064;2023-06-22T03:50:52;4.83;;;4.43;;
73733;SDS011;62039;50.000;9.064;2023-06-22T03:53:19;5.60;;;4.73;;
73733;SDS011;62039;50.000;9.064;2023-06-22T03:55:49;5.20;;;4.80;;
73733;SDS011;62039;50.000;9.064;2023-06-22T03:58:17;5.03;;;4.57;;
73733;SDS011;62039;50.000;9.064;2023-06-22T04:00:45;5.00;;;4.50;;
73733;SDS011;62039;50.000;9.064;2023-06-22T04:03:15;5.00;;;4.50;;
73733;SDS011;62039;50.000;9.064;2023-06-22T04:05:42;5.37;;;4.87;;
73733;SDS011;62039;50.000;9.064;2023-06-22T04:08:09;5.53;;;5.13;;
73733;SDS011;62039;50.000;9.064;2023-06-22T04:10:37;5.00;;;4.60;;
73733;SDS011;62039;50.000;9.064;2023-06-22T04:13:04;5.57;;;5.10;;
73733;SDS011;62039;50.000;9.064;2023-06-22T04:15:30;5.60;;;5.20;;
73733;SDS011;62039;50.000;9.064;2023-06-22T04:17:57;5.07;;;4.67;;
73733;SDS011;62039;50.000;9.064;2023-06-22T04:20:27;4.97;;;4.57;;
73733;SDS011;62039;50.000;9.064;2023-06-22T04:22:55;5.50;;;5.00;;
73733;SDS011;62039;50.000;9.064;2023-06-22T04:25:23;5.40;;;4.67;;
73733;SDS011;62039;50.000;9.064;2023-06-22T04:27:50;5.40;;;4.93;;
73733;SDS011;62039;50.000;9.064;2023-06-22T04:30:17;5.13;;;4.73;;
73733;SDS011;62039;50.000;9.064;2023-06-22T04:32:44;5.27;;;4.87;;
73733;SDS011;62039;50.000;9.064;2023-06-22T04:35:11;5.57;;;5.10;;
73733;SDS011;62039;50.000;9.064;2023-06-22T04:37:42;4.93;;;4.53;;
73733;SDS011;62039;50.000;9.064;2023-06-22T04:40:10;5.27;;;4.87;;
73733;SDS011;62039;50.000;9.064;2023-06-22T04:45:06;5.33;;;4.93;;
73733;SDS011;62039;50.000;9.064;2023-06-22T04:47:33;4.47;;;4.17;;
73733;SDS011;62039;50.000;9.064;2023-06-22T04:50:00;5.20;;;4.80;;
73733;SDS011;62039;50.000;9.064;2023-06-22T04:52:27;5.17;;;4.67;;
73733;SDS011;62039;50.000;9.064;2023-06-22T04:54:56;5.20;;;4.73;;
73733;SDS011;62039;50.000;9.064;2023-06-22T04:57:23;4.83;;;4.47;;
73733;SDS011;62039;50.000;9.064;2023-06-22T04:59:50;5.43;;;4.93;;
73733;SDS011;62039;50.000;9.064;2023-06-22T05:02:17;5.77;;;5.17;;
73733;SDS011;62039;50.000;9.064;2023-06-22T05:04:44;5.60;;;5.10;;
73733;SDS011;62039;50.000;9.064;2023-06-22T05:07:12;5.13;;;4.73;;
73733;SDS011;62039;50.000;9.064;2023-06-22T05:09:39;5.63;;;5.10;;
73733;SDS011;62039;50.000;9.064;2023-06-22T05:12:09;5.83;;;5.23;;
73733;SDS011;62039;50.000;9.064;2023-06-22T05:14:37;5.30;;;4.90;;
73733;SDS011;62039;50.000;9.064;2023-06-22T05:17:04;5.83;;;5.33;;
73733;SDS011;62039;50.000;9.064;2023-06-22T05:19:31;7.33;;;5.23;;
73733;SDS011;62039;50.000;9.064;2023-06-22T05:21:58;5.97;;;4.73;;
73733;SDS011;62039;50.000;9.064;2023-06-22T05:24:25;4.67;;;4.37;;
73733;SDS011;62039;50.000;9.064;2023-06-22T05:26:52;5.10;;;4.70;;
73733;SDS011;62039;50.000;9.064;2023-06-22T05:29:21;4.60;;;4.30;;
73733;SDS011;62039;50.000;9.064;2023-06-22T05:31:48;5.20;;;4.73;;
73733;SDS011;62039;50.000;9.064;2023-06-22T05:34:15;4.93;;;4.53;;
73733;SDS011;62039;50.000;9.064;2023-06-22T05:36:42;4.67;;;4.27;;
73733;SDS011;62039;50.000;9.064;2023-06-22T05:39:12;4.87;;;4.47;;
73733;SDS011;62039;50.000;9.064;2023-06-22T05:41:40;4.47;;;4.07;;
73733;SDS011;62039;50.000;9.064;2023-06-22T05:44:07;4.60;;;4.23;;
73733;SDS011;62039;50.000;9.064;2023-06-22T05:46:39;4.23;;;3.93;;
73733;SDS011;62039;50.000;9.064;2023-06-22T05:49:07;4.47;;;4.07;;
73733;SDS011;62039;50.000;9.064;2023-06-22T05:51:34;4.90;;;4.50;;
73733;SDS011;62039;50.000;9.064;2023-06-22T05:54:01;4.80;;;4.30;;
73733;SDS011;62039;50.000;9.064;2023-06-22T05:56:28;4.63;;;4.30;;
73733;SDS011;62039;50.000;9.064;2023-06-22T05:58:55;4.37;;;3.97;;
73733;SDS011;62039;50.000;9.064;2023-06-22T06:01:23;4.03;;;3.73;;
73733;SDS011;62039;50.000;9.064;2023-06-22T06:03:52;4.37;;;4.07;;
73733;SDS011;62039;50.000;9.064;2023-06-22T06:06:19;4.37;;;4.07;;
73733;SDS011;62039;50.000;9.064;2023-06-22T06:08:46;4.10;;;3.80;;
73733;SDS011;62039;50.000;9.064;2023-06-22T06:11:14;4.40;;;4.10;;
73733;SDS011;62039;50.000;9.064;2023-06-22T06:13:41;4.40;;;4.07;;
73733;SDS011;62039;50.000;9.064;2023-06-22T06:16:08;4.20;;;3.90;;
73733;SDS011;62039;50.000;9.064;2023-06-22T06:18:35;4.70;;;4.30;;
73733;SDS011;62039;50.000;9.064;2023-06-22T06:21:04;4.80;;;4.40;;
73733;SDS011;62039;50.000;9.064;2023-06-22T06:23:31;4.30;;;3.93;;
73733;SDS011;62039;50.000;9.064;2023-06-22T06:25:58;4.97;;;4.57;;
73733;SDS011;62039;50.000;9.064;2023-06-22T06:28:25;4.40;;;4.10;;
73733;SDS011;62039;50.000;9.064;2023-06-22T06:30:52;5.00;;;4.60;;
73733;SDS011;62039;50.000;9.064;2023-06-22T06:33:19;4.60;;;4.20;;
73733;SDS011;62039;50.000;9.064;2023-06-22T06:35:47;4.67;;;4.30;;
73733;SDS011;62039;50.000;9.064;2023-06-22T06:38:17;4.70;;;4.30;;
73733;SDS011;62039;50.000;9.064;2023-06-22T06:40:44;4.70;;;4.00;;
73733;SDS011;62039;50.000;9.064;2023-06-22T06:43:11;4.67;;;4.37;;
73733;SDS011;62039;50.000;9.064;2023-06-22T06:46:57;4.17;;;3.87;;
73733;SDS011;62039;50.000;9.064;2023-06-22T06:49:25;4.60;;;4.23;;
73733;SDS011;62039;50.000;9.064;2023-06-22T06:51:51;4.43;;;4.13;;
73733;SDS011;62039;50.000;9.064;2023-06-22T06:54:18;4.43;;;4.13;;
73733;SDS011;62039;50.000;9.064;2023-06-22T06:56:45;4.23;;;3.93;;
73733;SDS011;62039;50.000;9.064;2023-06-22T06:59:12;4.37;;;4.07;;
73733;SDS011;62039;50.000;9.064;2023-06-22T07:01:39;4.37;;;4.07;;
73733;SDS011;62039;50.000;9.064;2023-06-22T07:04:09;4.40;;;4.10;;
73733;SDS011;62039;50.000;9.064;2023-06-22T07:06:36;3.67;;;3.37;;
73733;SDS011;62039;50.000;9.064;2023-06-22T07:09:03;4.10;;;3.80;;
73733;SDS011;62039;50.000;9.064;2023-06-22T07:11:30;4.90;;;4.50;;
73733;SDS011;62039;50.000;9.064;2023-06-22T07:13:57;4.40;;;4.10;;
73733;SDS011;62039;50.000;9.064;2023-06-22T07:16:24;4.33;;;4.03;;
73733;SDS011;62039;50.000;9.064;2023-06-22T07:18:51;4.50;;;4.03;;
73733;SDS011;62039;50.000;9.064;2023-06-22T07:21:20;4.53;;;4.23;;
73733;SDS011;62039;50.000;9.064;2023-06-22T07:23:47;4.43;;;4.10;;
73733;SDS011;62039;50.000;9.064;2023-06-22T07:26:14;4.80;;;4.40;;
73733;SDS011;62039;50.000;9.064;2023-06-22T07:28:41;4.13;;;3.83;;
73733;SDS011;62039;50.000;9.064;2023-06-22T07:31:08;4.33;;;3.93;;
73733;SDS011;62039;50.000;9.064;2023-06-22T07:33:35;4.73;;;4.33;;
73733;SDS011;62039;50.000;9.064;2023-06-22T07:36:02;4.90;;;4.50;;
73733;SDS011;62039;50.000;9.064;2023-06-22T07:38:32;4.70;;;4.30;;
73733;SDS011;62039;50.000;9.064;2023-06-22T07:40:59;4.20;;;3.90;;
73733;SDS011;62039;50.000;9.064;2023-06-22T07:43:26;4.40;;;4.00;;
73733;SDS011;62039;50.000;9.064;2023-06-22T07:45:53;4.70;;;4.30;;
73733;SDS011;62039;50.000;9.064;2023-06-22T07:48:20;4.47;;;4.07;;
73733;SDS011;62039;50.000;9.064;2023-06-22T07:50:47;4.93;;;4.53;;
73733;SDS011;62039;50.000;9.064;2023-06-22T07:53:15;4.10;;;3.80;;
73733;SDS011;62039;50.000;9.064;2023-06-22T07:55:44;4.30;;;4.00;;
73733;SDS011;62039;50.000;9.064;2023-06-22T07:58:15;4.23;;;3.93;;
73733;SDS011;62039;50.000;9.064;2023-06-22T08:00:41;4.47;;;4.17;;
73733;SDS011;62039;50.000;9.064;2023-06-22T08:03:08;4.90;;;4.50;;
73733;SDS011;62039;50.000;9.064;2023-06-22T08:05:35;4.80;;;4.50;;
73733;SDS011;62039;50.000;9.064;2023-06-22T08:08:03;6.47;;;4.63;;
73733;SDS011;62039;50.000;9.064;2023-06-22T08:10:30;4.80;;;4.40;;
73733;SDS011;62039;50.000;9.064;2023-06-22T08:13:00;4.40;;;4.10;;
73733;SDS011;62039;50.000;9.064;2023-06-22T08:15:27;4.30;;;3.90;;
73733;SDS011;62039;50.000;9.064;2023-06-22T08:17:54;3.47;;;3.23;;
73733;SDS011;62039;50.000;9.064;2023-06-22T08:20:22;4.00;;;3.70;;
73733;SDS011;62039;50.000;9.064;2023-06-22T08:22:48;4.37;;;4.07;;
73733;SDS011;62039;50.000;9.064;2023-06-22T08:25:15;4.03;;;3.60;;
73733;SDS011;62039;50.000;9.064;2023-06-22T08:27:44;3.70;;;3.50;;
73733;SDS011;62039;50.000;9.064;2023-06-22T08:30:15;3.78;;;3.47;;
73733;SDS011;62039;50.000;9.064;2023-06-22T08:32:42;3.95;;;3.65;;
73733;SDS011;62039;50.000;9.064;2023-06-22T08:35:09;3.87;;;3.57;;
73733;SDS011;62039;50.000;9.064;2023-06-22T08:37:36;4.28;;;3.88;;
73733;SDS011;62039;50.000;9.064;2023-06-22T08:40:04;3.90;;;3.60;;
73733;SDS011;62039;50.000;9.064;2023-06-22T08:42:34;4.68;;;4.22;;
73733;SDS011;62039;50.000;9.064;2023-06-22T08:45:01;4.28;;;3.92;;
73733;SDS011;62039;50.000;9.064;2023-06-22T08:47:30;4.00;;;3.70;;
73733;SDS011;62039;50.000;9.064;2023-06-22T08:49:57;3.75;;;3.53;;
73733;SDS011;62039;50.000;9.064;2023-06-22T08:52:24;3.75;;;3.45;;
73733;SDS011;62039;50.000;9.064;2023-06-22T08:54:51;4.15;;;3.78;;
73733;SDS011;62039;50.000;9.064;2023-06-22T08:57:18;4.00;;;3.70;;
73733;SDS011;62039;50.000;9.064;2023-06-22T08:59:45;4.35;;;3.95;;
73733;SDS011;62039;50.000;9.064;2023-06-22T09:02:12;3.45;;;3.25;;
73733;SDS011;62039;50.000;9.064;2023-06-22T09:04:42;4.22;;;3.85;;
73733;SDS011;62039;50.000;9.064;2023-06-22T09:07:09;3.47;;;3.10;;
73733;SDS011;62039;50.000;9.064;2023-06-22T09:09:36;4.68;;;3.88;;
73733;SDS011;62039;50.000;9.064;2023-06-22T09:12:03;4.15;;;3.85;;
73733;SDS011;62039;50.000;9.064;2023-06-22T09:14:31;3.85;;;3.55;;
73733;SDS011;62039;50.000;9.064;2023-06-22T09:16:58;3.95;;;3.65;;
73733;SDS011;62039;50.000;9.064;2023-06-22T09:19:25;4.70;;;4.40;;
73733;SDS011;62039;50.000;9.064;2023-06-22T09:21:55;4.05;;;3.75;;
73733;SDS011;62039;50.000;9.064;2023-06-22T09:24:22;3.88;;;3.58;;
73733;SDS011;62039;50.000;9.064;2023-06-22T09:26:49;4.05;;;3.65;;
73733;SDS011;62039;50.000;9.064;2023-06-22T09:29:16;4.30;;;4.00;;
73733;SDS011;62039;50.000;9.064;2023-06-22T09:31:43;4.25;;;3.95;;
73733;SDS011;62039;50.000;9.064;2023-06-22T09:34:10;3.92;;;3.65;;
73733;SDS011;62039;50.000;9.064;2023-06-22T09:36:37;4.20;;;3.90;;
73733;SDS011;62039;50.000;9.064;2023-06-22T09:39:07;4.05;;;3.70;;
73733;SDS011;62039;50.000;9.064;2023-06-22T09:41:34;3.80;;;3.50;;
73733;SDS011;62039;50.000;9.064;2023-06-22T09:44:01;4.05;;;3.75;;
73733;SDS011;62039;50.000;9.064;2023-06-22T09:46:28;3.85;;;3.55;;
73733;SDS011;62039;50.000;9.064;2023-06-22T09:48:55;4.55;;;3.60;;
73733;SDS011;62039;50.000;9.064;2023-06-22T09:51:22;4.43;;;4.03;;
73733;SDS011;62039;50.000;9.064;2023-06-22T09:53:49;3.65;;;3.35;;
73733;SDS011;62039;50.000;9.064;2023-06-22T09:56:19;3.85;;;3.55;;
73733;SDS011;62039;50.000;9.064;2023-06-22T09:58:46;4.38;;;4.03;;
73733;SDS011;62039;50.000;9.064;2023-06-22T10:01:13;3.63;;;3.42;;
73733;SDS011;62039;50.000;9.064;2023-06-22T10:03:40;4.05;;;3.75;;
73733;SDS011;62039;50.000;9.064;2023-06-22T10:06:08;4.13;;;3.83;;
73733;SDS011;62039;50.000;9.064;2023-06-22T10:08:35;3.90;;;3.60;;
73733;SDS011;62039;50.000;9.064;2023-06-22T10:11:02;4.25;;;3.90;;
73733;SDS011;62039;50.000;9.064;2023-06-22T10:13:32;4.35;;;4.00;;
73733;SDS011;62039;50.000;9.064;2023-06-22T10:15:59;3.58;;;3.28;;
73733;SDS011;62039;50.000;9.064;2023-06-22T10:18:25;4.07;;;3.78;;
73733;SDS011;62039;50.000;9.064;2023-06-22T10:20:53;4.13;;;3.83;;
73733;SDS011;62039;50.000;9.064;2023-06-22T10:23:20;4.15;;;3.85;;
73733;SDS011;62039;50.000;9.064;2023-06-22T10:25:47;4.28;;;3.97;;
73733;SDS011;62039;50.000;9.064;2023-06-22T10:28:14;3.92;;;3.60;;
73733;SDS011;62039;50.000;9.064;2023-06-22T10:30:44;3.78;;;3.47;;
73733;SDS011;62039;50.000;9.064;2023-06-22T10:33:11;3.75;;;3.45;;
73733;SDS011;62039;50.000;9.064;2023-06-22T10:35:38;3.83;;;3.55;;
73733;SDS011;62039;50.000;9.064;2023-06-22T10:38:06;4.03;;;3.72;;
73733;SDS011;62039;50.000;9.064;2023-06-22T10:40:33;4.18;;;3.88;;
73733;SDS011;62039;50.000;9.064;2023-06-22T10:43:00;3.75;;;3.55;;
73733;SDS011;62039;50.000;9.064;2023-06-22T10:45:27;3.80;;;3.50;;
73733;SDS011;62039;50.000;9.064;2023-06-22T10:47:58;3.92;;;3.60;;
73733;SDS011;62039;50.000;9.064;2023-06-22T10:50:25;4.03;;;3.72;;
73733;SDS011;62039;50.000;9.064;2023-06-22T10:52:53;3.90;;;3.50;;
73733;SDS011;62039;50.000;9.064;2023-06-22T10:55:24;3.80;;;3.50;;
73733;SDS011;62039;50.000;9.064;2023-06-22T10:57:51;3.70;;;3.40;;
73733;SDS011;62039;50.000;9.064;2023-06-22T11:00:18;4.05;;;3.75;;
73733;SDS011;62039;50.000;9.064;2023-06-22T11:02:45;3.58;;;3.28;;
73733;SDS011;62039;50.000;9.064;2023-06-22T11:05:15;3.92;;;3.60;;
73733;SDS011;62039;50.000;9.064;2023-06-22T11:07:42;3.97;;;3.67;;
73733;SDS011;62039;50.000;9.064;2023-06-22T11:10:29;3.85;;;3.55;;
73733;SDS011;62039;50.000;9.064;2023-06-22T11:12:57;3.95;;;3.65;;
73733;SDS011;62039;50.000;9.064;2023-06-22T11:15:24;3.80;;;3.53;;
73733;SDS011;62039;50.000;9.064;2023-06-22T11:17:51;3.97;;;3.60;;
73733;SDS011;62039;50.000;9.064;2023-06-22T11:20:20;3.78;;;3.47;;
73733;SDS011;62039;50.000;9.064;2023-06-22T11:22:47;3.47;;;3.28;;
73733;SDS011;62039;50.000;9.064;2023-06-22T11:25:14;4.38;;;3.97;;
73733;SDS011;62039;50.000;9.064;2023-06-22T11:27:41;4.05;;;3.75;;
73733;SDS011;62039;50.000;9.064;2023-06-22T11:30:08;4.13;;;3.75;;
73733;SDS011;62039;50.000;9.064;2023-06-22T11:32:36;4.40;;;4.00;;
73733;SDS011;62039;50.000;9.064;2023-06-22T11:35:03;3.55;;;3.25;;
73733;SDS011;62039;50.000;9.064;2023-06-22T11:37:33;4.28;;;3.88;;
73733;SDS011;62039;50.000;9.064;2023-06-22T11:40:00;4.63;;;4.15;;
73733;SDS011;62039;50.000;9.064;2023-06-22T11:42:30;4.03;;;3.67;;
73733;SDS011;62039;50.000;9.064;2023-06-22T11:44:57;5.60;;;4.03;;
73733;SDS011;62039;50.000;9.064;2023-06-22T11:47:25;4.03;;;3.67;;
73733;SDS011;62039;50.000;9.064;2023-06-22T11:49:52;5.07;;;4.50;;
73733;SDS011;62039;50.000;9.064;2023-06-22T11:52:19;4.40;;;4.00;;
73733;SDS011;62039;50.000;9.064;2023-06-22T11:54:49;6.50;;;4.80;;
73733;SDS011;62039;50.000;9.064;2023-06-22T11:57:16;6.22;;;5.28;;
73733;SDS011;62039;50.000;9.064;2023-06-22T11:59:42;6.22;;;4.80;;
73733;SDS011;62039;50.000;9.064;2023-06-22T12:02:09;4.20;;;3.80;;
73733;SDS011;62039;50.000;9.064;2023-06-22T12:04:36;4.25;;;3.90;;
73733;SDS011;62039;50.000;9.064;2023-06-22T12:07:03;4.07;;;3.67;;
73733;SDS011;62039;50.000;9.064;2023-06-22T12:09:30;4.25;;;3.95;;
73733;SDS011;62039;50.000;9.064;2023-06-22T12:12:00;4.38;;;4.07;;
73733;SDS011;62039;50.000;9.064;2023-06-22T12:14:28;4.43;;;3.83;;
73733;SDS011;62039;50.000;9.064;2023-06-22T12:16:57;4.72;;;4.28;;
73733;SDS011;62039;50.000;9.064;2023-06-22T12:19:24;5.13;;;4.57;;
73733;SDS011;62039;50.000;9.064;2023-06-22T12:21:51;4.10;;;3.80;;
73733;SDS011;62039;50.000;9.064;2023-06-22T12:24:18;4.28;;;3.88;;
73733;SDS011;62039;50.000;9.064;2023-06-22T12:26:45;5.18;;;4.40;;
73733;SDS011;62039;50.000;9.064;2023-06-22T12:29:14;4.22;;;3.92;;
73733;SDS011;62039;50.000;9.064;2023-06-22T12:31:41;5.07;;;4.20;;
73733;SDS011;62039;50.000;9.064;2023-06-22T12:34:08;4.32;;;4.03;;
73733;SDS011;62039;50.000;9.064;2023-06-22T12:36:35;4.55;;;3.70;;
73733;SDS011;62039;50.000;9.064;2023-06-22T12:39:02;5.55;;;4.07;;
73733;SDS011;62039;50.000;9.064;2023-06-22T12:41:30;3.75;;;3.45;;
73733;SDS011;62039;50.000;9.064;2023-06-22T12:43:56;4.10;;;3.75;;
73733;SDS011;62039;50.000;9.064;2023-06-22T12:46:26;4.05;;;3.70;;
73733;SDS011;62039;50.000;9.064;2023-06-22T12:48:53;4.00;;;3.70;;
73733;SDS011;62039;50.000;9.064;2023-06-22T12:51:20;4.20;;;3.67;;
73733;SDS011;62039;50.000;9.064;2023-06-22T12:53:47;4.43;;;3.70;;
73733;SDS011;62039;50.000;9.064;2023-06-22T12:56:14;4.97;;;4.28;;
73733;SDS011;62039;50.000;9.064;2023-06-22T12:58:41;4.53;;;4.13;;
73733;SDS011;62039;50.000;9.064;2023-06-22T13:01:08;3.85;;;3.53;;
73733;SDS011;62039;50.000;9.064;2023-06-22T13:03:38;5.28;;;4.78;;
73733;SDS011;62039;50.000;9.064;2023-06-22T13:06:05;4.70;;;4.40;;
73733;SDS011;62039;50.000;9.064;2023-06-22T13:08:32;3.63;;;3.33;;
73733;SDS011;62039;50.000;9.064;2023-06-22T13:11:19;3.88;;;3.45;;
73733;SDS011;62039;50.000;9.064;2023-06-22T13:13:46;3.97;;;3.67;;
73733;SDS011;62039;50.000;9.064;2023-06-22T13:16:13;5.60;;;4.15;;
73733;SDS011;62039;50.000;9.064;2023-06-22T13:18:43;5.72;;;4.38;;
73733;SDS011;62039;50.000;9.064;2023-06-22T13:21:10;5.35;;;4.85;;
73733;SDS011;62039;50.000;9.064;2023-06-22T13:23:37;5.05;;;3.65;;
73733;SDS011;62039;50.000;9.064;2023-06-22T13:26:04;3.70;;;3.30;;
73733;SDS011;62039;50.000;9.064;2023-06-22T13:28:31;3.65;;;3.35;;
73733;SDS011;62039;50.000;9.064;2023-06-22T13:30:58;3.55;;;3.25;;
73733;SDS011;62039;50.000;9.064;2023-06-22T13:33:25;3.95;;;3.55;;
73733;SDS011;62039;50.000;9.064;2023-06-22T13:35:55;3.55;;;3.25;;
73733;SDS011;62039;50.000;9.064;2023-06-22T13:38:22;4.40;;;3.10;;
73733;SDS011;62039;50.000;9.064;2023-06-22T13:40:49;3.13;;;2.90;;
73733;SDS011;62039;50.000;9.064;2023-06-22T13:43:16;4.55;;;3.20;;
73733;SDS011;62039;50.000;9.064;2023-06-22T13:45:43;3.38;;;3.08;;
73733;SDS011;62039;50.000;9.064;2023-06-22T13:48:10;3.88;;;3.47;;
73733;SDS011;62039;50.000;9.064;2023-06-22T13:50:37;3.53;;;3.20;;
73733;SDS011;62039;50.000;9.064;2023-06-22T13:53:06;3.13;;;2.50;;
73733;SDS011;62039;50.000;9.064;2023-06-22T13:55:33;2.90;;;2.70;;
73733;SDS011;62039;50.000;9.064;2023-06-22T13:58:00;4.63;;;3.60;;
73733;SDS011;62039;50.000;9.064;2023-06-22T14:00:27;3.67;;;3.35;;
73733;SDS011;62039;50.000;9.064;2023-06-22T14:02:58;3.60;;;2.78;;
73733;SDS011;62039;50.000;9.064;2023-06-22T14:05:25;3.88;;;3.17;;
73733;SDS011;62039;50.000;9.064;2023-06-22T14:07:52;3.67;;;3.20;;
73733;SDS011;62039;50.000;9.064;2023-06-22T14:10:22;3.53;;;3.22;;
73733;SDS011;62039;50.000;9.064;2023-06-22T14:12:49;5.85;;;4.03;;
73733;SDS011;62039;50.000;9.064;2023-06-22T14:15:16;3.25;;;2.85;;
73733;SDS011;62039;50.000;9.064;2023-06-22T14:17:43;4.07;;;3.33;;
73733;SDS011;62039;50.000;9.064;2023-06-22T14:20:10;4.45;;;3.90;;
73733;SDS011;62039;50.000;9.064;2023-06-22T14:22:37;5.00;;;3.40;;
73733;SDS011;62039;50.000;9.064;2023-06-22T14:25:05;3.80;;;3.40;;
73733;SDS011;62039;50.000;9.064;2023-06-22T14:27:35;4.00;;;3.60;;
73733;SDS011;62039;50.000;9.064;2023-06-22T14:30:02;4.28;;;2.92;;
73733;SDS011;62039;50.000;9.064;2023-06-22T14:32:32;3.42;;;2.92;;
73733;SDS011;62039;50.000;9.064;2023-06-22T14:34:59;4.10;;;2.85;;
73733;SDS011;62039;50.000;9.064;2023-06-22T14:37:26;4.18;;;3.17;;
73733;SDS011;62039;50.000;9.064;2023-06-22T14:39:53;7.70;;;3.75;;
73733;SDS011;62039;50.000;9.064;2023-06-22T14:42:20;8.07;;;4.30;;
73733;SDS011;62039;50.000;9.064;2023-06-22T14:44:50;4.97;;;4.47;;
73733;SDS011;62039;50.000;9.064;2023-06-22T14:47:17;4.57;;;3.65;;
73733;SDS011;62039;50.000;9.064;2023-06-22T14:49:43;3.42;;;3.00;;
73733;SDS011;62039;50.000;9.064;2023-06-22T14:52:10;4.20;;;3.58;;
73733;SDS011;62039;50.000;9.064;2023-06-22T14:54:37;6.78;;;3.28;;